N390TC KTMB-KEYW
Flight info
| Callsign | N390TC |
|---|---|
| Flight time | 1h 15m |
| Altitude | VFR |
| Route | |
| Aircraft |
Departure
| Time | 2026-05-07 23:30 |
|---|---|
| Airport | Miami Executive Airport (KTMB) |
Arrival
| Time | 2026-05-08 00:46 |
|---|---|
| Airport | Key West International Airport (KEYW) |
| Time | Latitude | Longitude | Altitude | Speed | Heading |
|---|---|---|---|---|---|
| 2026-05-07 23:17 | 25.64553 | -80.42631 | 17 ft | 0 kts | 263° |
| 2026-05-07 23:20 | 25.64552 | -80.42632 | 17 ft | 1 kts | 262° |
| 2026-05-07 23:20 | 25.64547 | -80.42650 | 17 ft | 5 kts | 248° |
| 2026-05-07 23:20 | 25.64530 | -80.42704 | 18 ft | 9 kts | 257° |
| 2026-05-07 23:20 | 25.64523 | -80.42783 | 18 ft | 11 kts | 268° |
| 2026-05-07 23:21 | 25.64516 | -80.42848 | 17 ft | 5 kts | 240° |
| 2026-05-07 23:21 | 25.64471 | -80.42868 | 16 ft | 9 kts | 194° |
| 2026-05-07 23:21 | 25.64451 | -80.42931 | 15 ft | 10 kts | 264° |
| 2026-05-07 23:21 | 25.64456 | -80.43010 | 14 ft | 11 kts | 303° |
| 2026-05-07 23:22 | 25.64507 | -80.43084 | 12 ft | 13 kts | 307° |
| 2026-05-07 23:22 | 25.64569 | -80.43172 | 11 ft | 15 kts | 307° |
| 2026-05-07 23:22 | 25.64633 | -80.43264 | 12 ft | 15 kts | 306° |
| 2026-05-07 23:22 | 25.64695 | -80.43354 | 12 ft | 15 kts | 307° |
| 2026-05-07 23:23 | 25.64760 | -80.43447 | 12 ft | 16 kts | 307° |
| 2026-05-07 23:23 | 25.64821 | -80.43540 | 15 ft | 14 kts | 307° |
| 2026-05-07 23:23 | 25.64880 | -80.43622 | 16 ft | 13 kts | 307° |
| 2026-05-07 23:23 | 25.64938 | -80.43705 | 15 ft | 14 kts | 307° |
| 2026-05-07 23:24 | 25.65004 | -80.43770 | 16 ft | 13 kts | 14° |
| 2026-05-07 23:24 | 25.65039 | -80.43780 | 16 ft | 0 kts | 245° |
| 2026-05-07 23:26 | 25.65031 | -80.43799 | 16 ft | 6 kts | 248° |
| 2026-05-07 23:26 | 25.65043 | -80.43854 | 16 ft | 10 kts | 303° |
| 2026-05-07 23:26 | 25.65095 | -80.43932 | 14 ft | 15 kts | 307° |
| 2026-05-07 23:27 | 25.65099 | -80.44014 | 12 ft | 0 kts | 219° |
| 2026-05-07 23:29 | 25.65091 | -80.44020 | 12 ft | 8 kts | 214° |
| 2026-05-07 23:29 | 25.65005 | -80.44000 | 13 ft | 23 kts | 130° |
| 2026-05-07 23:29 | 25.64804 | -80.43707 | 22 ft | 70 kts | 130° |
| 2026-05-07 23:29 | 25.64501 | -80.43216 | 174 ft | 80 kts | 134° |
| 2026-05-07 23:30 | 25.64160 | -80.42737 | 325 ft | 83 kts | 140° |
| 2026-05-07 23:30 | 25.63790 | -80.42235 | 382 ft | 87 kts | 130° |
| 2026-05-07 23:30 | 25.63632 | -80.41604 | 428 ft | 95 kts | 96° |
| 2026-05-07 23:30 | 25.63681 | -80.40905 | 682 ft | 88 kts | 91° |
| 2026-05-07 23:31 | 25.63772 | -80.40204 | 796 ft | 92 kts | 90° |
| 2026-05-07 23:31 | 25.63853 | -80.39469 | 863 ft | 96 kts | 91° |
| 2026-05-07 23:31 | 25.63635 | -80.38866 | 890 ft | 85 kts | 163° |
| 2026-05-07 23:31 | 25.63148 | -80.39091 | 1051 ft | 79 kts | 211° |
| 2026-05-07 23:32 | 25.62645 | -80.39382 | 1177 ft | 85 kts | 209° |
| 2026-05-07 23:32 | 25.62157 | -80.39684 | 1367 ft | 78 kts | 207° |
| 2026-05-07 23:32 | 25.61677 | -80.39970 | 1515 ft | 78 kts | 210° |
| 2026-05-07 23:32 | 25.61201 | -80.40264 | 1687 ft | 79 kts | 208° |
| 2026-05-07 23:33 | 25.60727 | -80.40550 | 1874 ft | 77 kts | 210° |
| 2026-05-07 23:33 | 25.60263 | -80.40830 | 2077 ft | 73 kts | 211° |
| 2026-05-07 23:33 | 25.59797 | -80.41112 | 2256 ft | 74 kts | 208° |
| 2026-05-07 23:33 | 25.59334 | -80.41382 | 2423 ft | 81 kts | 208° |
| 2026-05-07 23:34 | 25.58756 | -80.41346 | 2627 ft | 84 kts | 163° |
| 2026-05-07 23:34 | 25.58171 | -80.41204 | 2755 ft | 90 kts | 173° |
| 2026-05-07 23:34 | 25.57558 | -80.41031 | 2917 ft | 92 kts | 169° |
| 2026-05-07 23:34 | 25.56967 | -80.40859 | 3162 ft | 88 kts | 168° |
| 2026-05-07 23:35 | 25.56365 | -80.40678 | 3322 ft | 90 kts | 168° |
| 2026-05-07 23:35 | 25.55756 | -80.40492 | 3505 ft | 90 kts | 168° |
| 2026-05-07 23:35 | 25.55149 | -80.40305 | 3646 ft | 93 kts | 169° |
| 2026-05-07 23:35 | 25.54532 | -80.40115 | 3840 ft | 90 kts | 168° |
| 2026-05-07 23:36 | 25.53919 | -80.39923 | 4012 ft | 92 kts | 167° |
| 2026-05-07 23:36 | 25.53296 | -80.39728 | 4154 ft | 95 kts | 169° |
| 2026-05-07 23:36 | 25.52647 | -80.39529 | 4322 ft | 97 kts | 168° |
| 2026-05-07 23:36 | 25.51992 | -80.39327 | 4443 ft | 102 kts | 168° |
| 2026-05-07 23:37 | 25.51294 | -80.39114 | 4498 ft | 105 kts | 169° |
| 2026-05-07 23:37 | 25.50573 | -80.38893 | 4503 ft | 109 kts | 168° |
| 2026-05-07 23:37 | 25.49835 | -80.38665 | 4503 ft | 110 kts | 168° |
| 2026-05-07 23:37 | 25.49091 | -80.38432 | 4508 ft | 112 kts | 169° |
| 2026-05-07 23:38 | 25.48378 | -80.38071 | 4501 ft | 115 kts | 149° |
| 2026-05-07 23:38 | 25.47701 | -80.37604 | 4501 ft | 114 kts | 153° |
| 2026-05-07 23:38 | 25.47026 | -80.37159 | 4503 ft | 114 kts | 153° |
| 2026-05-07 23:38 | 25.46344 | -80.36709 | 4506 ft | 114 kts | 152° |
| 2026-05-07 23:39 | 25.45653 | -80.36258 | 4509 ft | 116 kts | 152° |
| 2026-05-07 23:39 | 25.44956 | -80.35800 | 4508 ft | 117 kts | 152° |
| 2026-05-07 23:39 | 25.44260 | -80.35342 | 4507 ft | 116 kts | 152° |
| 2026-05-07 23:39 | 25.43574 | -80.34890 | 4505 ft | 114 kts | 153° |
| 2026-05-07 23:40 | 25.42891 | -80.34440 | 4503 ft | 115 kts | 153° |
| 2026-05-07 23:40 | 25.42197 | -80.33987 | 4502 ft | 117 kts | 153° |
| 2026-05-07 23:40 | 25.41496 | -80.33526 | 4504 ft | 118 kts | 152° |
| 2026-05-07 23:40 | 25.40794 | -80.33066 | 4503 ft | 117 kts | 153° |
| 2026-05-07 23:41 | 25.40099 | -80.32608 | 4500 ft | 116 kts | 153° |
| 2026-05-07 23:41 | 25.39418 | -80.32159 | 4498 ft | 115 kts | 152° |
| 2026-05-07 23:41 | 25.38734 | -80.31709 | 4496 ft | 114 kts | 152° |
| 2026-05-07 23:41 | 25.38048 | -80.31260 | 4499 ft | 115 kts | 153° |
| 2026-05-07 23:42 | 25.37357 | -80.30806 | 4500 ft | 116 kts | 153° |
| 2026-05-07 23:42 | 25.36664 | -80.30354 | 4497 ft | 115 kts | 152° |
| 2026-05-07 23:42 | 25.35982 | -80.29903 | 4497 ft | 114 kts | 152° |
| 2026-05-07 23:42 | 25.35306 | -80.29460 | 4500 ft | 113 kts | 152° |
| 2026-05-07 23:43 | 25.34629 | -80.29018 | 4500 ft | 113 kts | 152° |
| 2026-05-07 23:43 | 25.33948 | -80.28571 | 4502 ft | 114 kts | 152° |
| 2026-05-07 23:43 | 25.33266 | -80.28123 | 4501 ft | 114 kts | 152° |
| 2026-05-07 23:43 | 25.32567 | -80.27758 | 4485 ft | 111 kts | 177° |
| 2026-05-07 23:44 | 25.31880 | -80.28001 | 4492 ft | 102 kts | 219° |
| 2026-05-07 23:44 | 25.31308 | -80.28483 | 4495 ft | 105 kts | 218° |
| 2026-05-07 23:44 | 25.30714 | -80.28955 | 4507 ft | 105 kts | 219° |
| 2026-05-07 23:44 | 25.30116 | -80.29441 | 4511 ft | 108 kts | 219° |
| 2026-05-07 23:45 | 25.29512 | -80.29933 | 4513 ft | 108 kts | 219° |
| 2026-05-07 23:45 | 25.28904 | -80.30425 | 4516 ft | 108 kts | 219° |
| 2026-05-07 23:45 | 25.28303 | -80.30911 | 4514 ft | 106 kts | 219° |
| 2026-05-07 23:45 | 25.27714 | -80.31385 | 4507 ft | 104 kts | 218° |
| 2026-05-07 23:46 | 25.27136 | -80.31849 | 4503 ft | 102 kts | 219° |
| 2026-05-07 23:46 | 25.26574 | -80.32302 | 4505 ft | 100 kts | 219° |
| 2026-05-07 23:46 | 25.26012 | -80.32754 | 4506 ft | 100 kts | 218° |
| 2026-05-07 23:46 | 25.25454 | -80.33205 | 4506 ft | 99 kts | 219° |
| 2026-05-07 23:47 | 25.24894 | -80.33658 | 4505 ft | 100 kts | 219° |
| 2026-05-07 23:47 | 25.24330 | -80.34113 | 4504 ft | 101 kts | 219° |
| 2026-05-07 23:47 | 25.23763 | -80.34571 | 4505 ft | 101 kts | 219° |
| 2026-05-07 23:47 | 25.23194 | -80.35032 | 4506 ft | 101 kts | 219° |
| 2026-05-07 23:48 | 25.22624 | -80.35492 | 4504 ft | 101 kts | 219° |
| 2026-05-07 23:48 | 25.22057 | -80.35949 | 4505 ft | 100 kts | 219° |
| 2026-05-07 23:48 | 25.21494 | -80.36404 | 4506 ft | 100 kts | 218° |
| 2026-05-07 23:48 | 25.20938 | -80.36852 | 4506 ft | 100 kts | 218° |
| 2026-05-07 23:49 | 25.20367 | -80.37312 | 4506 ft | 101 kts | 219° |
| 2026-05-07 23:49 | 25.19803 | -80.37767 | 4508 ft | 101 kts | 220° |
| 2026-05-07 23:49 | 25.19234 | -80.38227 | 4509 ft | 101 kts | 219° |
| 2026-05-07 23:49 | 25.18665 | -80.38685 | 4507 ft | 100 kts | 218° |
| 2026-05-07 23:50 | 25.18104 | -80.39138 | 4509 ft | 99 kts | 218° |
| 2026-05-07 23:50 | 25.17546 | -80.39587 | 4505 ft | 99 kts | 218° |
| 2026-05-07 23:50 | 25.16989 | -80.40034 | 4510 ft | 99 kts | 218° |
| 2026-05-07 23:50 | 25.16428 | -80.40488 | 4511 ft | 100 kts | 219° |
| 2026-05-07 23:51 | 25.15868 | -80.40940 | 4512 ft | 101 kts | 219° |
| 2026-05-07 23:51 | 25.15297 | -80.41400 | 4512 ft | 102 kts | 219° |
| 2026-05-07 23:51 | 25.14726 | -80.41861 | 4511 ft | 101 kts | 219° |
| 2026-05-07 23:51 | 25.14161 | -80.42316 | 4512 ft | 100 kts | 218° |
| 2026-05-07 23:52 | 25.13597 | -80.42768 | 4509 ft | 100 kts | 218° |
| 2026-05-07 23:52 | 25.13038 | -80.43217 | 4507 ft | 99 kts | 219° |
| 2026-05-07 23:52 | 25.12478 | -80.43669 | 4510 ft | 100 kts | 219° |
| 2026-05-07 23:52 | 25.11922 | -80.44117 | 4511 ft | 100 kts | 219° |
| 2026-05-07 23:53 | 25.11357 | -80.44573 | 4511 ft | 100 kts | 219° |
| 2026-05-07 23:53 | 25.10794 | -80.45026 | 4511 ft | 100 kts | 219° |
| 2026-05-07 23:53 | 25.10230 | -80.45480 | 4511 ft | 100 kts | 219° |
| 2026-05-07 23:53 | 25.09662 | -80.45938 | 4514 ft | 100 kts | 218° |
| 2026-05-07 23:54 | 25.09099 | -80.46391 | 4512 ft | 99 kts | 218° |
| 2026-05-07 23:54 | 25.08545 | -80.46836 | 4512 ft | 100 kts | 218° |
| 2026-05-07 23:54 | 25.07982 | -80.47289 | 4512 ft | 100 kts | 219° |
| 2026-05-07 23:54 | 25.07419 | -80.47742 | 4513 ft | 100 kts | 218° |
| 2026-05-07 23:55 | 25.06856 | -80.48195 | 4513 ft | 100 kts | 219° |
| 2026-05-07 23:55 | 25.06291 | -80.48650 | 4514 ft | 101 kts | 219° |
| 2026-05-07 23:55 | 25.05726 | -80.49105 | 4514 ft | 100 kts | 218° |
| 2026-05-07 23:55 | 25.05173 | -80.49548 | 4511 ft | 99 kts | 218° |
| 2026-05-07 23:56 | 25.04617 | -80.49994 | 4511 ft | 99 kts | 218° |
| 2026-05-07 23:56 | 25.04058 | -80.50444 | 4511 ft | 99 kts | 218° |
| 2026-05-07 23:56 | 25.03499 | -80.50893 | 4510 ft | 100 kts | 219° |
| 2026-05-07 23:56 | 25.02933 | -80.51350 | 4513 ft | 101 kts | 219° |
| 2026-05-07 23:57 | 25.02369 | -80.51804 | 4518 ft | 99 kts | 219° |
| 2026-05-07 23:57 | 25.01816 | -80.52249 | 4520 ft | 97 kts | 218° |
| 2026-05-07 23:57 | 25.01278 | -80.52681 | 4519 ft | 96 kts | 218° |
| 2026-05-07 23:57 | 25.00736 | -80.53116 | 4518 ft | 96 kts | 218° |
| 2026-05-07 23:58 | 25.00292 | -80.53645 | 4506 ft | 94 kts | 245° |
| 2026-05-07 23:58 | 24.99975 | -80.54275 | 4508 ft | 94 kts | 239° |
| 2026-05-07 23:58 | 24.99641 | -80.54895 | 4508 ft | 94 kts | 241° |
| 2026-05-07 23:58 | 24.99309 | -80.55516 | 4508 ft | 94 kts | 241° |
| 2026-05-07 23:59 | 24.98976 | -80.56138 | 4508 ft | 94 kts | 241° |
| 2026-05-07 23:59 | 24.98644 | -80.56762 | 4508 ft | 94 kts | 241° |
| 2026-05-07 23:59 | 24.98310 | -80.57384 | 4508 ft | 94 kts | 241° |
| 2026-05-07 23:59 | 24.97978 | -80.58004 | 4507 ft | 94 kts | 241° |
| 2026-05-08 00:00 | 24.97759 | -80.58415 | 4511 ft | 94 kts | 241° |
| 2026-05-08 00:00 | 24.97427 | -80.59033 | 4510 ft | 94 kts | 241° |
| 2026-05-08 00:00 | 24.97096 | -80.59651 | 4510 ft | 93 kts | 241° |
| 2026-05-08 00:00 | 24.96766 | -80.60269 | 4510 ft | 94 kts | 241° |
| 2026-05-08 00:01 | 24.96325 | -80.61091 | 4514 ft | 94 kts | 241° |
| 2026-05-08 00:01 | 24.96100 | -80.61512 | 4511 ft | 94 kts | 241° |
| 2026-05-08 00:01 | 24.95767 | -80.62132 | 4511 ft | 94 kts | 241° |
| 2026-05-08 00:01 | 24.95439 | -80.62745 | 4511 ft | 94 kts | 241° |
| 2026-05-08 00:02 | 24.95106 | -80.63366 | 4511 ft | 94 kts | 241° |
| 2026-05-08 00:02 | 24.94775 | -80.63984 | 4511 ft | 94 kts | 241° |
| 2026-05-08 00:02 | 24.94442 | -80.64603 | 4511 ft | 94 kts | 241° |
| 2026-05-08 00:02 | 24.94110 | -80.65223 | 4510 ft | 94 kts | 241° |
| 2026-05-08 00:03 | 24.93779 | -80.65841 | 4510 ft | 94 kts | 241° |
| 2026-05-08 00:03 | 24.93447 | -80.66459 | 4511 ft | 94 kts | 241° |
| 2026-05-08 00:03 | 24.93115 | -80.67079 | 4511 ft | 94 kts | 241° |
| 2026-05-08 00:03 | 24.92786 | -80.67691 | 4511 ft | 94 kts | 241° |
| 2026-05-08 00:04 | 24.92453 | -80.68312 | 4512 ft | 94 kts | 241° |
| 2026-05-08 00:04 | 24.92119 | -80.68936 | 4511 ft | 94 kts | 241° |
| 2026-05-08 00:04 | 24.91785 | -80.69557 | 4511 ft | 94 kts | 241° |
| 2026-05-08 00:04 | 24.91449 | -80.70182 | 4511 ft | 94 kts | 241° |
| 2026-05-08 00:05 | 24.91120 | -80.70796 | 4509 ft | 94 kts | 241° |
| 2026-05-08 00:05 | 24.90787 | -80.71415 | 4508 ft | 94 kts | 241° |
| 2026-05-08 00:05 | 24.90454 | -80.72035 | 4508 ft | 94 kts | 241° |
| 2026-05-08 00:05 | 24.90122 | -80.72655 | 4509 ft | 94 kts | 241° |
| 2026-05-08 00:06 | 24.89790 | -80.73273 | 4512 ft | 94 kts | 241° |
| 2026-05-08 00:06 | 24.89457 | -80.73893 | 4513 ft | 94 kts | 241° |
| 2026-05-08 00:06 | 24.89124 | -80.74514 | 4513 ft | 94 kts | 241° |
| 2026-05-08 00:06 | 24.88790 | -80.75134 | 4513 ft | 94 kts | 241° |
| 2026-05-08 00:07 | 24.88456 | -80.75754 | 4513 ft | 94 kts | 241° |
| 2026-05-08 00:07 | 24.88128 | -80.76367 | 4513 ft | 94 kts | 240° |
| 2026-05-08 00:07 | 24.87793 | -80.76988 | 4513 ft | 94 kts | 241° |
| 2026-05-08 00:07 | 24.87459 | -80.77608 | 4513 ft | 94 kts | 241° |
| 2026-05-08 00:08 | 24.87126 | -80.78230 | 4514 ft | 94 kts | 241° |
| 2026-05-08 00:08 | 24.86791 | -80.78851 | 4514 ft | 94 kts | 241° |
| 2026-05-08 00:08 | 24.86456 | -80.79475 | 4515 ft | 95 kts | 241° |
| 2026-05-08 00:08 | 24.86122 | -80.80097 | 4516 ft | 94 kts | 241° |
| 2026-05-08 00:09 | 24.85786 | -80.80720 | 4514 ft | 94 kts | 241° |
| 2026-05-08 00:09 | 24.85457 | -80.81332 | 4514 ft | 94 kts | 241° |
| 2026-05-08 00:09 | 24.85124 | -80.81951 | 4514 ft | 94 kts | 241° |
| 2026-05-08 00:09 | 24.84791 | -80.82570 | 4514 ft | 94 kts | 241° |
| 2026-05-08 00:10 | 24.84457 | -80.83189 | 4512 ft | 94 kts | 241° |
| 2026-05-08 00:10 | 24.84124 | -80.83809 | 4513 ft | 94 kts | 241° |
| 2026-05-08 00:10 | 24.83790 | -80.84429 | 4513 ft | 94 kts | 241° |
| 2026-05-08 00:10 | 24.83456 | -80.85050 | 4514 ft | 94 kts | 241° |
| 2026-05-08 00:11 | 24.83121 | -80.85672 | 4517 ft | 94 kts | 241° |
| 2026-05-08 00:11 | 24.82785 | -80.86295 | 4517 ft | 94 kts | 241° |
| 2026-05-08 00:11 | 24.82455 | -80.86909 | 4518 ft | 94 kts | 240° |
| 2026-05-08 00:11 | 24.82118 | -80.87534 | 4519 ft | 94 kts | 241° |
| 2026-05-08 00:12 | 24.81783 | -80.88153 | 4519 ft | 94 kts | 241° |
| 2026-05-08 00:12 | 24.81449 | -80.88775 | 4519 ft | 94 kts | 241° |
| 2026-05-08 00:12 | 24.81115 | -80.89395 | 4519 ft | 94 kts | 241° |
| 2026-05-08 00:12 | 24.80781 | -80.90014 | 4519 ft | 94 kts | 241° |
| 2026-05-08 00:13 | 24.80450 | -80.90627 | 4519 ft | 94 kts | 241° |
| 2026-05-08 00:13 | 24.80115 | -80.91246 | 4520 ft | 94 kts | 241° |
| 2026-05-08 00:13 | 24.79783 | -80.91864 | 4520 ft | 94 kts | 242° |
| 2026-05-08 00:13 | 24.79449 | -80.92482 | 4520 ft | 94 kts | 242° |
| 2026-05-08 00:14 | 24.79115 | -80.93102 | 4521 ft | 94 kts | 242° |
| 2026-05-08 00:14 | 24.78783 | -80.93718 | 4520 ft | 93 kts | 242° |
| 2026-05-08 00:14 | 24.78451 | -80.94334 | 4520 ft | 93 kts | 242° |
| 2026-05-08 00:14 | 24.78119 | -80.94949 | 4520 ft | 94 kts | 242° |
| 2026-05-08 00:15 | 24.77785 | -80.95568 | 4518 ft | 94 kts | 242° |
| 2026-05-08 00:15 | 24.77450 | -80.96189 | 4520 ft | 95 kts | 242° |
| 2026-05-08 00:15 | 24.77116 | -80.96808 | 4522 ft | 95 kts | 242° |
| 2026-05-08 00:15 | 24.76778 | -80.97434 | 4521 ft | 95 kts | 242° |
| 2026-05-08 00:16 | 24.76442 | -80.98057 | 4520 ft | 94 kts | 242° |
| 2026-05-08 00:16 | 24.76107 | -80.98677 | 4519 ft | 94 kts | 242° |
| 2026-05-08 00:16 | 24.75773 | -80.99294 | 4518 ft | 94 kts | 242° |
| 2026-05-08 00:16 | 24.75444 | -80.99903 | 4518 ft | 93 kts | 242° |
| 2026-05-08 00:17 | 24.75112 | -81.00518 | 4521 ft | 94 kts | 242° |
| 2026-05-08 00:17 | 24.74777 | -81.01136 | 4522 ft | 94 kts | 242° |
| 2026-05-08 00:17 | 24.74443 | -81.01757 | 4526 ft | 95 kts | 241° |
| 2026-05-08 00:17 | 24.74107 | -81.02379 | 4525 ft | 95 kts | 242° |
| 2026-05-08 00:18 | 24.73769 | -81.03003 | 4526 ft | 95 kts | 241° |
| 2026-05-08 00:18 | 24.73431 | -81.03628 | 4521 ft | 95 kts | 242° |
| 2026-05-08 00:18 | 24.73094 | -81.04252 | 4523 ft | 95 kts | 241° |
| 2026-05-08 00:18 | 24.72757 | -81.04877 | 4523 ft | 94 kts | 242° |
| 2026-05-08 00:19 | 24.72511 | -81.05523 | 4520 ft | 92 kts | 261° |
| 2026-05-08 00:19 | 24.72360 | -81.06213 | 4521 ft | 93 kts | 256° |
| 2026-05-08 00:19 | 24.72196 | -81.06903 | 4521 ft | 93 kts | 258° |
| 2026-05-08 00:19 | 24.72032 | -81.07596 | 4521 ft | 93 kts | 257° |
| 2026-05-08 00:20 | 24.71868 | -81.08286 | 4521 ft | 93 kts | 257° |
| 2026-05-08 00:20 | 24.71707 | -81.08966 | 4520 ft | 93 kts | 258° |
| 2026-05-08 00:20 | 24.71544 | -81.09653 | 4521 ft | 93 kts | 257° |
| 2026-05-08 00:20 | 24.71380 | -81.10343 | 4521 ft | 93 kts | 258° |
| 2026-05-08 00:21 | 24.71217 | -81.11026 | 4519 ft | 92 kts | 258° |
| 2026-05-08 00:21 | 24.71055 | -81.11706 | 4519 ft | 92 kts | 258° |
| 2026-05-08 00:21 | 24.70894 | -81.12387 | 4519 ft | 92 kts | 257° |
| 2026-05-08 00:21 | 24.70731 | -81.13071 | 4518 ft | 92 kts | 257° |
| 2026-05-08 00:22 | 24.70569 | -81.13753 | 4518 ft | 92 kts | 257° |
| 2026-05-08 00:22 | 24.70406 | -81.14435 | 4519 ft | 92 kts | 257° |
| 2026-05-08 00:22 | 24.70246 | -81.15108 | 4520 ft | 92 kts | 257° |
| 2026-05-08 00:22 | 24.70083 | -81.15794 | 4521 ft | 93 kts | 257° |
| 2026-05-08 00:23 | 24.69917 | -81.16486 | 4521 ft | 93 kts | 257° |
| 2026-05-08 00:23 | 24.69752 | -81.17182 | 4522 ft | 94 kts | 257° |
| 2026-05-08 00:23 | 24.69587 | -81.17879 | 4523 ft | 94 kts | 257° |
| 2026-05-08 00:23 | 24.69420 | -81.18578 | 4524 ft | 95 kts | 257° |
| 2026-05-08 00:24 | 24.69253 | -81.19278 | 4525 ft | 94 kts | 258° |
| 2026-05-08 00:24 | 24.69087 | -81.19972 | 4523 ft | 93 kts | 258° |
| 2026-05-08 00:24 | 24.68923 | -81.20659 | 4521 ft | 92 kts | 258° |
| 2026-05-08 00:24 | 24.68761 | -81.21338 | 4519 ft | 92 kts | 257° |
| 2026-05-08 00:25 | 24.68600 | -81.22014 | 4517 ft | 91 kts | 257° |
| 2026-05-08 00:25 | 24.68440 | -81.22682 | 4515 ft | 92 kts | 257° |
| 2026-05-08 00:25 | 24.68278 | -81.23361 | 4516 ft | 92 kts | 257° |
| 2026-05-08 00:25 | 24.68115 | -81.24044 | 4517 ft | 93 kts | 257° |
| 2026-05-08 00:26 | 24.67950 | -81.24735 | 4515 ft | 93 kts | 257° |
| 2026-05-08 00:26 | 24.67785 | -81.25429 | 4516 ft | 94 kts | 257° |
| 2026-05-08 00:26 | 24.67619 | -81.26122 | 4516 ft | 94 kts | 257° |
| 2026-05-08 00:26 | 24.67453 | -81.26818 | 4516 ft | 94 kts | 257° |
| 2026-05-08 00:27 | 24.67287 | -81.27513 | 4516 ft | 94 kts | 257° |
| 2026-05-08 00:27 | 24.67121 | -81.28205 | 4515 ft | 93 kts | 257° |
| 2026-05-08 00:27 | 24.66957 | -81.28894 | 4514 ft | 93 kts | 256° |
| 2026-05-08 00:27 | 24.66791 | -81.29585 | 4513 ft | 93 kts | 257° |
| 2026-05-08 00:28 | 24.66625 | -81.30276 | 4516 ft | 94 kts | 257° |
| 2026-05-08 00:28 | 24.66459 | -81.30971 | 4517 ft | 94 kts | 257° |
| 2026-05-08 00:28 | 24.66295 | -81.31662 | 4516 ft | 94 kts | 257° |
| 2026-05-08 00:28 | 24.66128 | -81.32361 | 4516 ft | 94 kts | 257° |
| 2026-05-08 00:29 | 24.65960 | -81.33059 | 4516 ft | 95 kts | 257° |
| 2026-05-08 00:29 | 24.65793 | -81.33759 | 4517 ft | 95 kts | 257° |
| 2026-05-08 00:29 | 24.65625 | -81.34461 | 4515 ft | 94 kts | 257° |
| 2026-05-08 00:29 | 24.65457 | -81.35159 | 4514 ft | 94 kts | 256° |
| 2026-05-08 00:30 | 24.65290 | -81.35853 | 4512 ft | 94 kts | 257° |
| 2026-05-08 00:30 | 24.65125 | -81.36545 | 4513 ft | 94 kts | 256° |
| 2026-05-08 00:30 | 24.64958 | -81.37241 | 4512 ft | 94 kts | 256° |
| 2026-05-08 00:30 | 24.64791 | -81.37935 | 4512 ft | 94 kts | 256° |
| 2026-05-08 00:31 | 24.64627 | -81.38620 | 4513 ft | 94 kts | 256° |
| 2026-05-08 00:31 | 24.64460 | -81.39317 | 4514 ft | 94 kts | 256° |
| 2026-05-08 00:31 | 24.64292 | -81.40017 | 4515 ft | 95 kts | 256° |
| 2026-05-08 00:31 | 24.64123 | -81.40720 | 4515 ft | 95 kts | 257° |
| 2026-05-08 00:32 | 24.63955 | -81.41422 | 4517 ft | 95 kts | 257° |
| 2026-05-08 00:32 | 24.63786 | -81.42125 | 4518 ft | 95 kts | 257° |
| 2026-05-08 00:32 | 24.63618 | -81.42827 | 4516 ft | 95 kts | 257° |
| 2026-05-08 00:32 | 24.63451 | -81.43522 | 4514 ft | 94 kts | 257° |
| 2026-05-08 00:33 | 24.63285 | -81.44213 | 4511 ft | 93 kts | 257° |
| 2026-05-08 00:33 | 24.63120 | -81.44898 | 4505 ft | 90 kts | 258° |
| 2026-05-08 00:33 | 24.62960 | -81.45574 | 4351 ft | 96 kts | 257° |
| 2026-05-08 00:33 | 24.62795 | -81.46251 | 4273 ft | 91 kts | 257° |
| 2026-05-08 00:34 | 24.62632 | -81.46937 | 4136 ft | 91 kts | 258° |
| 2026-05-08 00:34 | 24.62470 | -81.47613 | 3986 ft | 93 kts | 258° |
| 2026-05-08 00:34 | 24.62305 | -81.48294 | 3885 ft | 91 kts | 257° |
| 2026-05-08 00:34 | 24.62142 | -81.48968 | 3768 ft | 91 kts | 258° |
| 2026-05-08 00:35 | 24.61980 | -81.49644 | 3642 ft | 91 kts | 258° |
| 2026-05-08 00:35 | 24.61818 | -81.50315 | 3509 ft | 92 kts | 259° |
| 2026-05-08 00:35 | 24.61656 | -81.50991 | 3413 ft | 90 kts | 259° |
| 2026-05-08 00:35 | 24.61495 | -81.51663 | 3298 ft | 91 kts | 259° |
| 2026-05-08 00:36 | 24.61335 | -81.52323 | 3173 ft | 90 kts | 259° |
| 2026-05-08 00:36 | 24.61173 | -81.52996 | 3037 ft | 91 kts | 258° |
| 2026-05-08 00:36 | 24.61010 | -81.53673 | 2913 ft | 91 kts | 258° |
| 2026-05-08 00:36 | 24.60846 | -81.54353 | 2788 ft | 92 kts | 259° |
| 2026-05-08 00:37 | 24.60682 | -81.55038 | 2656 ft | 94 kts | 257° |
| 2026-05-08 00:37 | 24.60516 | -81.55722 | 2544 ft | 94 kts | 258° |
| 2026-05-08 00:37 | 24.60349 | -81.56414 | 2437 ft | 93 kts | 258° |
| 2026-05-08 00:38 | 24.60011 | -81.57812 | 2223 ft | 96 kts | 259° |
| 2026-05-08 00:38 | 24.59840 | -81.58517 | 2129 ft | 95 kts | 258° |
| 2026-05-08 00:38 | 24.59674 | -81.59211 | 2050 ft | 93 kts | 259° |
| 2026-05-08 00:38 | 24.59507 | -81.59900 | 1967 ft | 94 kts | 258° |
| 2026-05-08 00:39 | 24.59338 | -81.60601 | 1888 ft | 94 kts | 258° |
| 2026-05-08 00:39 | 24.59170 | -81.61298 | 1767 ft | 96 kts | 260° |
| 2026-05-08 00:39 | 24.59000 | -81.61996 | 1721 ft | 94 kts | 259° |
| 2026-05-08 00:39 | 24.58833 | -81.62690 | 1635 ft | 93 kts | 258° |
| 2026-05-08 00:40 | 24.58665 | -81.63385 | 1519 ft | 95 kts | 259° |
| 2026-05-08 00:40 | 24.58493 | -81.64095 | 1477 ft | 96 kts | 258° |
| 2026-05-08 00:40 | 24.58322 | -81.64798 | 1476 ft | 94 kts | 258° |
| 2026-05-08 00:40 | 24.58156 | -81.65478 | 1473 ft | 91 kts | 258° |
| 2026-05-08 00:41 | 24.58011 | -81.66162 | 1475 ft | 95 kts | 260° |
| 2026-05-08 00:41 | 24.57866 | -81.66879 | 1472 ft | 94 kts | 260° |
| 2026-05-08 00:41 | 24.57729 | -81.67573 | 1478 ft | 91 kts | 260° |
| 2026-05-08 00:41 | 24.57584 | -81.68266 | 1474 ft | 94 kts | 260° |
| 2026-05-08 00:42 | 24.57437 | -81.68959 | 1476 ft | 93 kts | 259° |
| 2026-05-08 00:42 | 24.57291 | -81.69669 | 1439 ft | 99 kts | 260° |
| 2026-05-08 00:42 | 24.57124 | -81.70404 | 1404 ft | 100 kts | 256° |
| 2026-05-08 00:42 | 24.56928 | -81.71160 | 1360 ft | 105 kts | 256° |
| 2026-05-08 00:43 | 24.56740 | -81.71946 | 1292 ft | 107 kts | 257° |
| 2026-05-08 00:43 | 24.56544 | -81.72745 | 1227 ft | 110 kts | 257° |
| 2026-05-08 00:43 | 24.56368 | -81.73576 | 1137 ft | 113 kts | 264° |
| 2026-05-08 00:43 | 24.56271 | -81.74435 | 1094 ft | 111 kts | 266° |
| 2026-05-08 00:44 | 24.56207 | -81.75234 | 1165 ft | 101 kts | 272° |
| 2026-05-08 00:44 | 24.56216 | -81.76009 | 1121 ft | 100 kts | 275° |
| 2026-05-08 00:44 | 24.56256 | -81.76770 | 1124 ft | 99 kts | 279° |
| 2026-05-08 00:44 | 24.56326 | -81.77523 | 1120 ft | 97 kts | 282° |
| 2026-05-08 00:45 | 24.56359 | -81.78259 | 981 ft | 99 kts | 254° |
| 2026-05-08 00:45 | 24.55824 | -81.78557 | 837 ft | 91 kts | 157° |
| 2026-05-08 00:45 | 24.55544 | -81.78031 | 569 ft | 85 kts | 86° |
| 2026-05-08 00:45 | 24.55599 | -81.77429 | 291 ft | 72 kts | 82° |
| 2026-05-08 00:46 | 24.55602 | -81.76899 | 85 ft | 67 kts | 86° |
| 2026-05-08 00:46 | 24.55617 | -81.76425 | 6 ft | 52 kts | 88° |
| 2026-05-08 00:46 | 24.55610 | -81.76096 | 8 ft | 38 kts | 88° |
| 2026-05-08 00:46 | 24.55614 | -81.75808 | 11 ft | 35 kts | 89° |
| 2026-05-08 00:47 | 24.55592 | -81.75587 | 15 ft | 21 kts | 173° |
| 2026-05-08 00:47 | 24.55481 | -81.75587 | 13 ft | 15 kts | 178° |
| 2026-05-08 00:47 | 24.55413 | -81.75644 | 13 ft | 15 kts | 270° |
| 2026-05-08 00:47 | 24.55434 | -81.75725 | 13 ft | 9 kts | 317° |
| 2026-05-08 00:48 | 24.55478 | -81.75744 | 14 ft | 0 kts | 344° |